createdAt,value
2022-08-16T00:01:10.337Z,13.81
2022-08-16T00:03:37.599Z,13.68
2022-08-16T00:06:04.661Z,13.63
2022-08-16T00:08:36.603Z,13.83
2022-08-16T00:11:07.805Z,13.85
2022-08-16T00:13:42.576Z,13.63
2022-08-16T00:17:01.374Z,13.99
2022-08-16T00:18:56.282Z,13.68
2022-08-16T00:21:23.183Z,13.66
2022-08-16T00:23:49.857Z,13.95
2022-08-16T00:26:36.230Z,13.82
2022-08-16T00:29:04.494Z,13.80
2022-08-16T00:31:47.245Z,13.59
2022-08-16T00:34:19.783Z,13.56
2022-08-16T00:36:47.328Z,13.85
2022-08-16T00:39:15.350Z,13.80
2022-08-16T00:41:42.777Z,13.73
2022-08-16T00:44:13.660Z,13.66
2022-08-16T00:46:52.712Z,14.02
2022-08-16T00:49:29.400Z,13.90
2022-08-16T00:52:29.631Z,14.03
2022-08-16T00:54:53.264Z,14.07
2022-08-16T00:57:20.289Z,13.85
2022-08-16T00:59:59.169Z,13.98
2022-08-16T01:02:31.482Z,13.69
2022-08-16T01:05:10.590Z,14.07
2022-08-16T01:07:51.337Z,14.06
2022-08-16T01:10:21.071Z,13.76
2022-08-16T01:12:49.259Z,13.96
2022-08-16T01:15:16.465Z,13.78
2022-08-16T01:17:43.810Z,13.72
2022-08-16T01:20:24.114Z,13.67
2022-08-16T01:22:59.933Z,13.67
2022-08-16T01:25:34.599Z,13.71
2022-08-16T01:28:05.155Z,13.89
2022-08-16T01:30:39.671Z,13.83
2022-08-16T01:33:14.106Z,13.73
2022-08-16T01:35:46.339Z,13.69
2022-08-16T01:38:22.392Z,13.68
2022-08-16T01:40:55.933Z,13.56
2022-08-16T01:43:23.852Z,13.60
2022-08-16T01:45:57.640Z,13.49
2022-08-16T01:48:27.437Z,13.48
2022-08-16T01:51:09.240Z,13.58
2022-08-16T01:53:41.326Z,13.37
2022-08-16T01:56:28.954Z,13.36
2022-08-16T01:58:58.001Z,13.49
2022-08-16T02:01:26.299Z,13.37
2022-08-16T02:03:58.407Z,13.33
2022-08-16T02:06:34.371Z,13.36
2022-08-16T02:09:06.020Z,13.43
2022-08-16T02:11:47.883Z,13.55
2022-08-16T02:14:21.659Z,13.41
2022-08-16T02:16:50.899Z,13.39
2022-08-16T02:19:19.929Z,13.31
2022-08-16T02:22:08.360Z,13.33
2022-08-16T02:24:41.104Z,13.57
2022-08-16T02:27:09.855Z,13.52
2022-08-16T02:29:36.599Z,13.35
2022-08-16T02:32:49.748Z,13.47
2022-08-16T02:34:51.995Z,13.57
2022-08-16T02:37:23.946Z,13.40
2022-08-16T02:40:12.147Z,13.36
2022-08-16T02:42:48.036Z,13.45
2022-08-16T02:45:18.607Z,13.57
2022-08-16T02:48:01.430Z,13.51
2022-08-16T02:50:54.634Z,13.42
2022-08-16T02:53:23.566Z,13.44
2022-08-16T02:55:51.895Z,13.60
2022-08-16T02:58:20.037Z,13.54
2022-08-16T03:00:53.113Z,13.32
2022-08-16T03:03:25.026Z,13.41
2022-08-16T03:05:53.043Z,13.68
2022-08-16T03:08:52.565Z,13.45
2022-08-16T03:11:16.849Z,13.38
2022-08-16T03:13:51.449Z,13.21
2022-08-16T03:16:33.009Z,13.41
2022-08-16T03:19:06.298Z,13.33
2022-08-16T03:21:37.495Z,13.18
2022-08-16T03:24:28.810Z,13.25
2022-08-16T03:26:57.976Z,13.13
2022-08-16T03:29:29.850Z,13.14
2022-08-16T03:31:59.572Z,13.00
2022-08-16T03:34:28.664Z,13.16
2022-08-16T03:36:55.413Z,13.31
2022-08-16T03:39:22.315Z,13.06
2022-08-16T03:41:51.272Z,13.06
2022-08-16T03:44:44.709Z,13.11
2022-08-16T03:47:13.357Z,12.98
2022-08-16T03:49:51.191Z,12.99
2022-08-16T03:52:18.299Z,13.04
2022-08-16T03:54:57.759Z,12.89
2022-08-16T03:57:31.859Z,12.80
2022-08-16T04:00:35.067Z,12.79
2022-08-16T04:03:07.298Z,12.83
2022-08-16T04:05:38.839Z,12.71
2022-08-16T04:08:23.184Z,12.70
2022-08-16T04:10:58.158Z,12.83
2022-08-16T04:14:00.624Z,12.82
2022-08-16T04:16:26.575Z,12.88
2022-08-16T04:19:01.235Z,12.78
2022-08-16T04:21:33.677Z,12.93
2022-08-16T04:24:02.159Z,12.92
2022-08-16T04:26:31.754Z,12.65
2022-08-16T04:29:23.305Z,12.60
2022-08-16T04:31:56.859Z,12.65
2022-08-16T04:34:30.643Z,12.71
2022-08-16T04:37:01.320Z,12.54
2022-08-16T04:39:44.824Z,12.58
2022-08-16T04:42:15.848Z,12.48
2022-08-16T04:44:55.047Z,12.51
2022-08-16T04:47:32.987Z,12.49
2022-08-16T04:50:08.767Z,12.52
2022-08-16T04:52:36.146Z,12.51
2022-08-16T04:55:06.234Z,12.52
2022-08-16T04:57:34.617Z,12.56
2022-08-16T05:00:31.899Z,12.53
2022-08-16T05:02:55.696Z,12.50
2022-08-16T05:05:23.663Z,12.73
2022-08-16T05:07:59.661Z,12.65
2022-08-16T05:10:29.973Z,12.60
2022-08-16T05:12:57.471Z,12.67
2022-08-16T05:15:24.540Z,12.59
2022-08-16T05:17:58.897Z,12.56
2022-08-16T05:20:39.226Z,12.74
2022-08-16T05:23:18.863Z,12.87
2022-08-16T05:25:49.027Z,12.78
2022-08-16T05:28:18.688Z,12.54
2022-08-16T05:30:52.489Z,12.72
2022-08-16T05:33:25.916Z,12.71
2022-08-16T05:35:56.392Z,12.53
2022-08-16T05:38:32.585Z,12.49
2022-08-16T05:41:09.264Z,12.50
2022-08-16T05:43:43.702Z,12.61
2022-08-16T05:46:29.580Z,12.58
2022-08-16T05:49:22.179Z,12.69
2022-08-16T05:51:52.309Z,12.54
2022-08-16T05:54:24.805Z,12.71
2022-08-16T05:56:54.591Z,12.89
2022-08-16T05:59:22.662Z,12.90
2022-08-16T06:01:52.004Z,12.76
2022-08-16T06:04:36.022Z,12.69
2022-08-16T06:07:24.356Z,12.77
2022-08-16T06:10:32.389Z,12.79
2022-08-16T06:13:03.891Z,12.77
2022-08-16T06:15:31.348Z,12.77
2022-08-16T06:17:59.469Z,12.92
2022-08-16T06:20:35.414Z,12.78
2022-08-16T06:23:18.129Z,12.97
2022-08-16T06:26:08.641Z,12.78
2022-08-16T06:28:40.149Z,12.73
2022-08-16T06:31:13.956Z,13.00
2022-08-16T06:33:44.658Z,12.99
2022-08-16T06:36:14.810Z,12.80
2022-08-16T06:38:56.193Z,12.79
2022-08-16T06:41:43.825Z,12.77
2022-08-16T06:44:24.457Z,12.90
2022-08-16T06:46:57.875Z,12.81
2022-08-16T06:49:30.126Z,12.91
2022-08-16T06:52:03.081Z,12.88
2022-08-16T06:54:36.026Z,12.72
2022-08-16T06:57:03.203Z,12.69
2022-08-16T06:59:48.505Z,12.74
2022-08-16T07:02:32.294Z,12.74
2022-08-16T07:05:02.152Z,12.72
2022-08-16T07:07:33.825Z,12.77
2022-08-16T07:10:01.549Z,12.70
2022-08-16T07:12:47.046Z,12.75
2022-08-16T07:15:18.714Z,12.60
2022-08-16T07:17:46.655Z,12.89
2022-08-16T07:20:35.317Z,12.78
2022-08-16T07:23:02.554Z,12.77
2022-08-16T07:25:48.247Z,13.00
2022-08-16T07:28:20.449Z,12.81
2022-08-16T07:30:53.268Z,12.81
2022-08-16T07:33:53.396Z,12.98
2022-08-16T07:36:30.842Z,12.77
2022-08-16T07:38:59.222Z,12.89
2022-08-16T07:41:29.542Z,12.81
2022-08-16T07:44:01.758Z,12.92
2022-08-16T07:46:38.993Z,12.91
2022-08-16T07:49:19.094Z,12.78
2022-08-16T07:51:46.892Z,12.88
2022-08-16T07:54:20.846Z,12.98
2022-08-16T07:56:54.012Z,13.07
2022-08-16T07:59:21.414Z,13.05
2022-08-16T08:01:49.117Z,13.04
2022-08-16T08:04:20.309Z,12.97
2022-08-16T08:06:51.093Z,12.90
2022-08-16T08:09:18.780Z,12.97
2022-08-16T08:11:59.842Z,13.06
2022-08-16T08:14:33.324Z,12.91
2022-08-16T08:17:01.860Z,13.02
2022-08-16T08:19:32.312Z,13.19
2022-08-16T08:22:02.357Z,12.84
2022-08-16T08:24:46.913Z,12.93
2022-08-16T08:27:22.601Z,13.00
2022-08-16T08:30:48.812Z,13.00
2022-08-16T08:32:57.999Z,13.12
2022-08-16T08:35:28.466Z,13.00
2022-08-16T08:37:56.723Z,13.02
2022-08-16T08:40:27.895Z,12.99
2022-08-16T08:43:00.613Z,13.09
2022-08-16T08:45:49.064Z,12.89
2022-08-16T08:48:35.135Z,13.11
2022-08-16T08:51:08.784Z,13.13
2022-08-16T08:53:46.027Z,13.08
2022-08-16T08:56:30.087Z,12.94
2022-08-16T08:59:13.192Z,13.15
2022-08-16T09:01:57.263Z,13.19
2022-08-16T09:04:29.979Z,13.29
2022-08-16T09:07:01.262Z,13.29
2022-08-16T09:09:33.581Z,13.15
2022-08-16T09:12:06.559Z,13.47
2022-08-16T09:14:49.483Z,13.57
2022-08-16T09:17:45.345Z,13.44
2022-08-16T09:20:10.600Z,13.45
2022-08-16T09:22:41.682Z,13.40
2022-08-16T09:25:11.385Z,13.49
2022-08-16T09:27:57.422Z,13.31
2022-08-16T09:30:33.752Z,13.50
2022-08-16T09:33:03.637Z,13.46
2022-08-16T09:35:33.810Z,13.51
2022-08-16T09:38:04.838Z,13.38
2022-08-16T09:40:42.919Z,13.16
2022-08-16T09:43:21.029Z,13.48
2022-08-16T09:45:58.078Z,13.51
2022-08-16T09:48:44.346Z,13.48
2022-08-16T09:51:12.143Z,13.57
2022-08-16T09:53:38.944Z,13.41
2022-08-16T09:56:12.137Z,13.39
2022-08-16T09:59:03.233Z,13.43
2022-08-16T10:01:25.887Z,13.38
2022-08-16T10:04:02.728Z,13.56
2022-08-16T10:06:33.927Z,13.55
2022-08-16T10:09:11.265Z,13.49
2022-08-16T10:11:56.631Z,13.39
2022-08-16T10:14:40.750Z,13.63
2022-08-16T10:17:12.801Z,13.41
2022-08-16T10:19:39.813Z,13.52
2022-08-16T10:22:06.618Z,13.49
2022-08-16T10:24:33.508Z,13.31
2022-08-16T10:27:26.738Z,13.44
2022-08-16T10:30:01.401Z,13.35
2022-08-16T10:32:33.796Z,13.55
2022-08-16T10:35:03.393Z,13.75
2022-08-16T10:37:32.716Z,13.84
2022-08-16T10:40:04.784Z,13.57
2022-08-16T10:42:31.512Z,13.79
2022-08-16T10:44:58.189Z,13.87
2022-08-16T10:47:26.373Z,13.56
2022-08-16T10:49:55.880Z,13.81
2022-08-16T10:52:24.374Z,13.77
2022-08-16T10:54:59.227Z,13.73
2022-08-16T10:57:32.843Z,13.69
2022-08-16T11:00:00.014Z,13.76
2022-08-16T11:03:37.515Z,13.81
2022-08-16T11:05:16.380Z,13.71
2022-08-16T11:07:45.574Z,13.88
2022-08-16T11:11:05.431Z,13.92
2022-08-16T11:15:57.597Z,13.86
2022-08-16T11:18:48.542Z,13.82
2022-08-16T11:21:28.473Z,13.88
2022-08-16T11:23:58.054Z,13.84
2022-08-16T11:26:25.534Z,13.85
2022-08-16T11:31:40.179Z,13.87
2022-08-16T11:34:13.245Z,14.09
2022-08-16T11:36:40.152Z,14.11
2022-08-16T11:39:20.782Z,14.10
2022-08-16T11:41:51.525Z,14.22
2022-08-16T11:44:20.366Z,14.40
2022-08-16T11:47:06.579Z,14.29
2022-08-16T11:49:33.275Z,14.55
2022-08-16T11:52:00.018Z,14.31
2022-08-16T11:54:36.077Z,14.69
2022-08-16T11:57:03.883Z,14.50
2022-08-16T11:59:39.573Z,14.61
2022-08-16T12:02:31.270Z,14.76
2022-08-16T12:04:53.921Z,14.74
2022-08-16T12:07:20.622Z,14.48
2022-08-16T12:09:50.373Z,14.76
2022-08-16T12:12:19.868Z,14.60
2022-08-16T12:14:46.577Z,14.63
2022-08-16T12:17:14.505Z,14.63
2022-08-16T12:19:41.526Z,14.35
2022-08-16T12:22:19.291Z,14.50
2022-08-16T12:24:52.354Z,14.39
2022-08-16T12:27:20.485Z,14.67
2022-08-16T12:29:51.488Z,14.58
2022-08-16T12:32:37.466Z,14.65
2022-08-16T12:35:07.539Z,14.68
2022-08-16T12:37:34.375Z,14.49
2022-08-16T12:40:02.433Z,14.65
2022-08-16T12:42:35.379Z,14.65
2022-08-16T12:45:04.784Z,14.48
2022-08-16T12:47:50.238Z,14.40
2022-08-16T12:50:18.561Z,14.20
2022-08-16T12:52:52.379Z,14.36
2022-08-16T12:55:20.761Z,14.06
2022-08-16T12:57:58.632Z,13.89
2022-08-16T13:00:33.712Z,13.81
2022-08-16T13:03:01.744Z,13.84
2022-08-16T13:05:28.521Z,14.03
2022-08-16T13:07:58.350Z,13.98
2022-08-16T13:10:37.668Z,14.12
2022-08-16T13:13:08.711Z,14.15
2022-08-16T13:15:36.219Z,13.84
2022-08-16T13:18:27.004Z,13.87
2022-08-16T13:21:01.137Z,13.85
2022-08-16T13:23:27.826Z,13.82
2022-08-16T13:25:55.472Z,13.60
2022-08-16T13:28:22.614Z,13.30
2022-08-16T13:30:53.670Z,13.31
2022-08-16T13:33:24.812Z,13.44
2022-08-16T13:35:56.388Z,13.55
2022-08-16T13:38:36.809Z,13.58
2022-08-16T13:41:08.843Z,13.66
2022-08-16T13:43:36.213Z,13.72
2022-08-16T13:46:04.725Z,13.58
2022-08-16T13:48:43.003Z,13.83
2022-08-16T13:51:16.873Z,13.56
2022-08-16T13:53:49.588Z,13.38
2022-08-16T13:56:25.151Z,13.32
2022-08-16T13:58:54.374Z,13.31
2022-08-16T14:01:22.105Z,13.51
2022-08-16T14:03:49.183Z,13.37
2022-08-16T14:06:18.629Z,13.27
2022-08-16T14:08:59.017Z,12.95
2022-08-16T14:11:32.695Z,13.13
2022-08-16T14:13:59.450Z,13.08
2022-08-16T14:16:34.108Z,13.10
2022-08-16T14:19:02.106Z,13.23
2022-08-16T14:21:35.210Z,13.10
2022-08-16T14:24:08.135Z,13.00
2022-08-16T14:26:49.541Z,13.04
2022-08-16T14:31:53.673Z,13.07
2022-08-16T14:34:21.354Z,13.10
2022-08-16T14:36:53.060Z,12.96
2022-08-16T14:39:22.109Z,12.88
2022-08-16T14:41:48.989Z,12.55
2022-08-16T14:44:20.113Z,12.79
2022-08-16T14:46:46.946Z,12.81
2022-08-16T14:49:14.498Z,12.90
2022-08-16T14:51:46.156Z,13.09
2022-08-16T14:54:13.183Z,12.75
2022-08-16T14:56:42.954Z,12.77
2022-08-16T14:59:11.010Z,12.97
2022-08-16T15:01:57.855Z,13.06
2022-08-16T15:04:39.774Z,12.61
2022-08-16T15:07:10.161Z,12.71
2022-08-16T15:09:44.430Z,12.68
2022-08-16T15:12:27.150Z,12.56
2022-08-16T15:14:58.271Z,12.60
2022-08-16T15:17:27.631Z,12.57
2022-08-16T15:20:00.967Z,12.65
2022-08-16T15:22:31.994Z,12.63
2022-08-16T15:25:00.387Z,12.53
2022-08-16T15:27:35.571Z,12.56
2022-08-16T15:30:09.156Z,12.67
2022-08-16T15:32:50.782Z,12.35
2022-08-16T15:35:18.233Z,12.54
2022-08-16T15:37:44.963Z,12.68
2022-08-16T15:40:26.666Z,12.84
2022-08-16T15:43:01.511Z,12.76
2022-08-16T15:45:46.580Z,12.70
2022-08-16T15:48:21.174Z,12.69
2022-08-16T15:50:55.374Z,12.90
2022-08-16T15:53:23.401Z,12.77
2022-08-16T15:55:51.873Z,12.93
2022-08-16T15:58:35.599Z,13.07
2022-08-16T16:01:05.714Z,12.89
2022-08-16T16:03:34.581Z,12.96
2022-08-16T16:06:02.761Z,12.69
2022-08-16T16:08:30.124Z,12.68
2022-08-16T16:10:58.755Z,12.92
2022-08-16T16:13:25.992Z,12.93
2022-08-16T16:15:54.104Z,12.72
2022-08-16T16:18:21.463Z,12.56
2022-08-16T16:20:49.742Z,12.60
2022-08-16T16:23:21.105Z,12.56
2022-08-16T16:25:50.635Z,12.61
2022-08-16T16:29:06.255Z,12.69
2022-08-16T16:31:06.875Z,12.57
2022-08-16T16:33:39.917Z,12.69
2022-08-16T16:36:07.418Z,12.64
2022-08-16T16:38:34.896Z,12.68
2022-08-16T16:41:04.782Z,12.79
2022-08-16T16:43:40.462Z,12.90
2022-08-16T16:46:42.204Z,12.88
2022-08-16T16:48:54.846Z,12.95
2022-08-16T16:51:22.160Z,12.86
2022-08-16T16:53:55.811Z,13.01
2022-08-16T16:56:27.462Z,12.55
2022-08-16T16:59:02.231Z,12.55
2022-08-16T17:01:56.921Z,12.64
2022-08-16T17:04:31.228Z,12.51
2022-08-16T17:06:59.100Z,12.69
2022-08-16T17:09:26.051Z,12.24
2022-08-16T17:11:55.290Z,12.72
2022-08-16T17:14:33.180Z,12.63
2022-08-16T17:17:06.693Z,12.45
2022-08-16T17:19:34.076Z,12.83
2022-08-16T17:22:07.007Z,12.82
2022-08-16T17:24:44.906Z,12.76
2022-08-16T17:27:18.105Z,12.65
2022-08-16T17:29:47.633Z,12.83
2022-08-16T17:32:33.858Z,12.40
2022-08-16T17:35:10.866Z,12.53
2022-08-16T17:37:48.690Z,12.37
2022-08-16T17:40:40.262Z,12.49
2022-08-16T17:43:06.814Z,12.40
2022-08-16T17:45:33.547Z,12.19
2022-08-16T17:48:00.227Z,12.19
2022-08-16T17:50:29.063Z,11.88
2022-08-16T17:52:56.492Z,11.86
2022-08-16T17:55:25.005Z,12.06
2022-08-16T17:57:52.361Z,12.08
2022-08-16T18:00:20.619Z,12.17
2022-08-16T18:02:50.216Z,12.30
2022-08-16T18:05:17.336Z,12.11
2022-08-16T18:07:44.457Z,12.17
2022-08-16T18:10:11.214Z,11.86
2022-08-16T18:12:51.296Z,11.96
2022-08-16T18:15:23.523Z,11.85
2022-08-16T18:17:53.133Z,11.75
2022-08-16T18:20:39.667Z,11.95
2022-08-16T18:23:08.670Z,12.00
2022-08-16T18:25:35.899Z,11.68
2022-08-16T18:28:03.154Z,11.74
2022-08-16T18:30:29.814Z,11.75
2022-08-16T18:32:56.521Z,11.81
2022-08-16T18:35:23.292Z,12.00
2022-08-16T18:37:50.282Z,11.70
2022-08-16T18:40:17.827Z,11.72
2022-08-16T18:42:54.927Z,11.73
2022-08-16T18:45:22.008Z,11.71
2022-08-16T18:47:48.741Z,11.80
2022-08-16T18:50:15.742Z,11.92
2022-08-16T18:52:50.090Z,11.81
2022-08-16T18:55:17.029Z,11.82
2022-08-16T18:57:44.833Z,11.65
2022-08-16T19:00:13.148Z,11.78
2022-08-16T19:02:42.997Z,11.87
2022-08-16T19:05:25.961Z,11.67
2022-08-16T19:07:52.675Z,11.69
2022-08-16T19:10:19.397Z,11.69
2022-08-16T19:12:46.092Z,11.65
2022-08-16T19:15:17.329Z,11.64
2022-08-16T19:17:44.627Z,11.46
2022-08-16T19:20:11.988Z,11.75
2022-08-16T19:24:40.437Z,11.61
2022-08-16T19:27:12.862Z,11.50
2022-08-16T19:29:39.615Z,11.41
2022-08-16T19:32:17.374Z,11.64
2022-08-16T19:34:44.346Z,11.26
2022-08-16T19:37:11.187Z,11.19
2022-08-16T19:39:39.011Z,11.44
2022-08-16T19:42:14.887Z,11.35
2022-08-16T19:44:43.764Z,11.30
2022-08-16T19:47:11.296Z,11.46
2022-08-16T19:49:38.357Z,11.44
2022-08-16T19:52:18.342Z,11.42
2022-08-16T19:54:47.285Z,11.04
2022-08-16T19:57:14.974Z,11.00
2022-08-16T19:59:42.142Z,10.89
2022-08-16T20:02:35.529Z,11.25
2022-08-16T20:05:05.254Z,11.16
2022-08-16T20:07:32.677Z,10.89
2022-08-16T20:09:59.480Z,10.88
2022-08-16T20:12:27.179Z,10.98
2022-08-16T20:14:54.065Z,11.03
2022-08-16T20:17:20.815Z,10.99
2022-08-16T20:19:47.681Z,11.14
2022-08-16T20:22:49.918Z,11.10
2022-08-16T20:25:14.499Z,11.42
2022-08-16T20:27:41.982Z,11.35
2022-08-16T20:30:11.027Z,11.10
2022-08-16T20:32:37.938Z,11.24
2022-08-16T20:35:07.748Z,11.04
2022-08-16T20:37:37.306Z,11.11
2022-08-16T20:40:29.670Z,11.02
2022-08-16T20:43:00.828Z,11.12
2022-08-16T20:45:28.523Z,10.84
2022-08-16T20:47:55.628Z,10.99
2022-08-16T20:50:22.620Z,11.10
2022-08-16T20:52:49.859Z,10.63
2022-08-16T20:55:17.250Z,10.82
2022-08-16T20:57:44.100Z,10.59
2022-08-16T21:00:11.962Z,10.85
2022-08-16T21:02:41.298Z,10.74
2022-08-16T21:05:09.401Z,10.57
2022-08-16T21:07:37.358Z,10.51
2022-08-16T21:10:05.511Z,10.40
2022-08-16T21:12:34.548Z,10.32
2022-08-16T21:15:08.660Z,10.45
2022-08-16T21:17:35.440Z,10.31
2022-08-16T21:20:02.269Z,10.63
2022-08-16T21:22:29.102Z,10.50
2022-08-16T21:24:56.677Z,10.39
2022-08-16T21:27:26.079Z,10.44
2022-08-16T21:29:56.010Z,10.39
2022-08-16T21:32:35.701Z,10.47
2022-08-16T21:35:13.333Z,10.53
2022-08-16T21:37:40.805Z,10.34
2022-08-16T21:40:09.075Z,10.39
2022-08-16T21:42:36.956Z,10.36
2022-08-16T21:45:04.130Z,10.10
2022-08-16T21:47:31.953Z,10.50
2022-08-16T21:49:58.907Z,10.17
2022-08-16T21:52:27.062Z,10.17
2022-08-16T21:54:56.312Z,10.08
2022-08-16T21:57:24.145Z,10.34
2022-08-16T21:59:52.825Z,10.16
2022-08-16T22:02:21.804Z,10.20
2022-08-16T22:04:49.350Z,10.02
2022-08-16T22:07:18.138Z,10.05
2022-08-16T22:09:47.131Z,9.85
2022-08-16T22:12:24.154Z,9.74
2022-08-16T22:14:51.272Z,9.90
2022-08-16T22:17:18.317Z,9.86
2022-08-16T22:19:45.892Z,9.69
2022-08-16T22:22:13.065Z,9.50
2022-08-16T22:24:40.117Z,9.45
2022-08-16T22:27:07.113Z,9.47
2022-08-16T22:29:34.038Z,9.49
2022-08-16T22:32:05.240Z,9.37
2022-08-16T22:34:32.366Z,9.19
2022-08-16T22:37:00.202Z,9.38
2022-08-16T22:39:27.329Z,9.38
2022-08-16T22:41:54.335Z,9.46
2022-08-16T22:44:21.310Z,9.34
2022-08-16T22:46:48.104Z,9.16
2022-08-16T22:49:15.001Z,9.12
2022-08-16T22:51:41.967Z,9.18
2022-08-16T22:54:44.140Z,9.38
2022-08-16T22:56:57.432Z,9.35
2022-08-16T22:59:25.285Z,9.16
2022-08-16T23:01:52.753Z,9.11
2022-08-16T23:04:19.602Z,9.36
2022-08-16T23:06:46.460Z,9.30
2022-08-16T23:09:13.220Z,9.15
2022-08-16T23:11:40.133Z,9.20
2022-08-16T23:14:06.872Z,9.29
2022-08-16T23:16:35.051Z,9.25
2022-08-16T23:19:04.561Z,9.34
2022-08-16T23:21:32.167Z,9.11
2022-08-16T23:23:59.068Z,8.99
2022-08-16T23:26:45.208Z,9.13
2022-08-16T23:29:22.259Z,8.99
2022-08-16T23:32:11.114Z,9.02
2022-08-16T23:34:38.468Z,8.95
2022-08-16T23:37:07.343Z,8.86
2022-08-16T23:39:36.406Z,8.99
2022-08-16T23:42:52.214Z,8.80
2022-08-16T23:45:04.243Z,9.06
2022-08-16T23:47:32.158Z,8.78
2022-08-16T23:50:03.401Z,8.81
2022-08-16T23:52:53.247Z,8.72
2022-08-16T23:55:18.238Z,8.61
2022-08-16T23:57:46.182Z,8.67
